createdAt,value
2023-01-15T00:01:20.544Z,0.93
2023-01-15T00:03:25.923Z,0.77
2023-01-15T00:05:31.411Z,0.80
2023-01-15T00:07:37.049Z,0.75
2023-01-15T00:09:41.997Z,0.60
2023-01-15T00:11:49.532Z,0.70
2023-01-15T00:13:54.624Z,0.73
2023-01-15T00:16:07.148Z,1.00
2023-01-15T00:18:12.863Z,0.60
2023-01-15T00:20:17.929Z,0.60
2023-01-15T00:22:23.150Z,0.70
2023-01-15T00:24:40.707Z,0.60
2023-01-15T00:27:01.206Z,0.73
2023-01-15T00:29:06.837Z,0.50
2023-01-15T00:31:17.245Z,0.85
2023-01-15T00:33:22.609Z,0.57
2023-01-15T00:35:28.331Z,0.50
2023-01-15T00:37:33.293Z,0.57
2023-01-15T00:39:38.286Z,0.57
2023-01-15T00:41:44.069Z,0.60
2023-01-15T00:43:53.016Z,0.60
2023-01-15T00:45:58.008Z,0.55
2023-01-15T00:48:02.963Z,0.60
2023-01-15T00:50:12.039Z,0.73
2023-01-15T00:52:17.894Z,0.73
2023-01-15T00:54:22.871Z,0.52
2023-01-15T00:56:28.113Z,0.77
2023-01-15T00:58:33.525Z,0.50
2023-01-15T01:00:41.103Z,0.52
2023-01-15T01:02:46.541Z,0.38
2023-01-15T01:04:51.636Z,0.70
2023-01-15T01:06:57.011Z,0.70
2023-01-15T01:09:02.760Z,0.68
2023-01-15T01:11:13.005Z,0.75
2023-01-15T01:13:18.224Z,0.77
2023-01-15T01:15:23.796Z,0.90
2023-01-15T01:17:31.832Z,0.82
2023-01-15T01:19:36.806Z,0.43
2023-01-15T01:21:44.821Z,0.75
2023-01-15T01:23:50.687Z,0.65
2023-01-15T01:25:55.644Z,0.30
2023-01-15T01:28:01.593Z,0.60
2023-01-15T01:30:08.423Z,0.50
2023-01-15T01:32:14.419Z,0.65
2023-01-15T01:34:22.295Z,0.57
2023-01-15T01:36:33.563Z,0.50
2023-01-15T01:38:39.008Z,0.47
2023-01-15T01:40:44.099Z,0.60
2023-01-15T01:42:49.476Z,0.45
2023-01-15T01:45:24.961Z,0.47
2023-01-15T01:47:34.358Z,0.85
2023-01-15T01:49:43.796Z,0.20
2023-01-15T01:51:55.681Z,0.30
2023-01-15T01:54:02.487Z,0.30
2023-01-15T01:56:11.620Z,0.17
2023-01-15T01:58:17.590Z,0.13
2023-01-15T02:00:23.951Z,0.40
2023-01-15T02:02:31.260Z,0.25
2023-01-15T02:04:37.871Z,0.40
2023-01-15T02:06:46.146Z,0.20
2023-01-15T02:08:51.692Z,0.20
2023-01-15T02:10:59.253Z,0.10
2023-01-15T02:13:15.773Z,0.13
2023-01-15T02:15:31.874Z,0.10
2023-01-15T02:17:44.461Z,0.00
2023-01-15T02:19:59.386Z,0.08
2023-01-15T02:22:18.458Z,0.20
2023-01-15T02:24:34.527Z,0.00
2023-01-15T02:27:06.862Z,0.10
2023-01-15T02:29:20.803Z,0.17
2023-01-15T02:31:33.253Z,0.10
2023-01-15T02:33:43.616Z,0.20
2023-01-15T02:35:53.515Z,0.20
2023-01-15T02:38:03.796Z,0.10
2023-01-15T02:40:13.565Z,0.15
2023-01-15T02:42:26.124Z,0.10
2023-01-15T02:44:35.049Z,0.10
2023-01-15T02:46:42.325Z,0.15
2023-01-15T02:48:55.085Z,0.05
2023-01-15T02:51:10.244Z,0.10
2023-01-15T02:53:23.648Z,0.10
2023-01-15T02:55:33.787Z,0.10
2023-01-15T02:57:44.832Z,0.08
2023-01-15T02:59:54.878Z,0.10
2023-01-15T03:02:04.234Z,0.00
2023-01-15T03:04:16.607Z,0.20
2023-01-15T03:06:30.098Z,0.20
2023-01-15T03:08:35.300Z,0.10
2023-01-15T03:10:49.646Z,0.10
2023-01-15T03:13:08.474Z,0.20
2023-01-15T03:15:44.280Z,0.20
2023-01-15T03:17:54.362Z,0.30
2023-01-15T03:20:05.718Z,0.00
2023-01-15T03:22:19.783Z,0.10
2023-01-15T03:24:34.580Z,0.20
2023-01-15T03:26:39.577Z,0.17
2023-01-15T03:28:48.363Z,0.10
2023-01-15T03:30:53.408Z,0.10
2023-01-15T03:32:59.299Z,0.20
2023-01-15T03:35:04.780Z,0.13
2023-01-15T03:37:10.509Z,0.17
2023-01-15T03:39:16.273Z,0.08
2023-01-15T03:41:52.592Z,0.22
2023-01-15T03:44:11.765Z,0.10
2023-01-15T03:46:34.371Z,0.20
2023-01-15T03:48:48.797Z,0.25
2023-01-15T03:51:01.348Z,0.10
2023-01-15T03:53:17.280Z,0.10
2023-01-15T03:55:40.748Z,0.20
2023-01-15T03:57:54.129Z,0.20
2023-01-15T04:00:06.444Z,0.20
2023-01-15T04:02:23.680Z,0.20
2023-01-15T04:04:31.412Z,0.45
2023-01-15T04:06:42.129Z,0.30
2023-01-15T04:08:50.482Z,0.13
2023-01-15T04:10:58.588Z,0.10
2023-01-15T04:13:08.876Z,0.20
2023-01-15T04:15:16.939Z,0.35
2023-01-15T04:17:22.277Z,0.20
2023-01-15T04:19:28.066Z,0.00
2023-01-15T04:21:37.465Z,0.30
2023-01-15T04:23:42.863Z,0.22
2023-01-15T04:25:47.834Z,0.03
2023-01-15T04:27:53.226Z,0.15
2023-01-15T04:29:59.052Z,0.25
2023-01-15T04:32:08.115Z,0.20
2023-01-15T04:34:13.124Z,0.10
2023-01-15T04:36:18.195Z,0.15
2023-01-15T04:38:23.122Z,0.20
2023-01-15T04:40:42.341Z,0.03
2023-01-15T04:42:59.801Z,0.10
2023-01-15T04:45:04.735Z,0.10
2023-01-15T04:47:12.911Z,0.10
2023-01-15T04:49:20.406Z,0.10
2023-01-15T04:51:25.455Z,0.30
2023-01-15T04:53:31.417Z,0.30
2023-01-15T04:55:36.757Z,0.30
2023-01-15T04:57:41.663Z,0.15
2023-01-15T04:59:47.521Z,0.30
2023-01-15T05:02:03.955Z,0.22
2023-01-15T05:04:13.670Z,0.10
2023-01-15T05:06:18.714Z,0.08
2023-01-15T05:08:24.106Z,0.20
2023-01-15T05:10:29.007Z,0.10
2023-01-15T05:12:34.282Z,0.10
2023-01-15T05:14:39.228Z,0.30
2023-01-15T05:16:44.762Z,0.30
2023-01-15T05:18:51.050Z,0.40
2023-01-15T05:20:58.800Z,0.20
2023-01-15T05:23:03.696Z,0.10
2023-01-15T05:25:09.894Z,0.32
2023-01-15T05:27:15.236Z,0.20
2023-01-15T05:29:20.207Z,0.30
2023-01-15T05:31:27.421Z,0.40
2023-01-15T05:33:32.375Z,0.13
2023-01-15T05:35:38.111Z,0.30
2023-01-15T05:37:46.461Z,0.45
2023-01-15T05:39:51.411Z,0.20
2023-01-15T05:41:56.633Z,0.20
2023-01-15T05:44:05.417Z,0.30
2023-01-15T05:46:10.381Z,0.30
2023-01-15T05:48:15.297Z,0.40
2023-01-15T05:50:20.553Z,0.40
2023-01-15T05:52:25.436Z,0.50
2023-01-15T05:54:35.971Z,0.10
2023-01-15T05:56:41.877Z,0.40
2023-01-15T05:58:46.741Z,0.38
2023-01-15T06:00:51.964Z,0.40
2023-01-15T06:02:57.392Z,0.35
2023-01-15T06:05:02.626Z,0.30
2023-01-15T06:07:07.933Z,0.68
2023-01-15T06:09:13.336Z,0.30
2023-01-15T06:11:21.451Z,0.30
2023-01-15T06:13:26.620Z,0.30
2023-01-15T06:15:31.485Z,0.60
2023-01-15T06:17:37.270Z,0.40
2023-01-15T06:19:42.939Z,0.40
2023-01-15T06:21:49.035Z,0.47
2023-01-15T06:23:56.623Z,0.47
2023-01-15T06:26:04.169Z,0.30
2023-01-15T06:28:13.568Z,0.50
2023-01-15T06:30:19.949Z,0.30
2023-01-15T06:32:24.853Z,0.60
2023-01-15T06:34:30.629Z,0.20
2023-01-15T06:36:35.545Z,0.40
2023-01-15T06:38:41.226Z,0.20
2023-01-15T06:40:46.550Z,0.57
2023-01-15T06:43:04.411Z,0.30
2023-01-15T06:45:26.873Z,0.20
2023-01-15T06:47:31.807Z,0.30
2023-01-15T06:49:40.040Z,0.30
2023-01-15T06:51:44.948Z,0.40
2023-01-15T06:53:50.845Z,0.20
2023-01-15T06:55:56.019Z,0.30
2023-01-15T06:58:00.904Z,0.20
2023-01-15T07:00:06.933Z,0.40
2023-01-15T07:02:15.477Z,0.43
2023-01-15T07:04:20.790Z,0.38
2023-01-15T07:06:26.566Z,0.30
2023-01-15T07:08:32.228Z,0.55
2023-01-15T07:10:37.835Z,0.32
2023-01-15T07:12:43.115Z,0.40
2023-01-15T07:14:48.558Z,0.28
2023-01-15T07:16:55.057Z,0.20
2023-01-15T07:19:02.693Z,0.38
2023-01-15T07:21:07.885Z,0.40
2023-01-15T07:23:13.730Z,0.10
2023-01-15T07:25:20.437Z,0.22
2023-01-15T07:27:26.482Z,0.20
2023-01-15T07:29:31.817Z,0.10
2023-01-15T07:31:36.887Z,0.20
2023-01-15T07:33:41.952Z,1.85
2023-01-15T07:35:49.451Z,0.93
2023-01-15T07:37:55.290Z,0.70
2023-01-15T07:40:00.640Z,3.50
2023-01-15T07:42:18.447Z,3.38
2023-01-15T07:44:36.550Z,1.83
2023-01-15T07:46:54.597Z,1.23
2023-01-15T07:49:27.059Z,1.48
2023-01-15T07:51:34.541Z,1.00
2023-01-15T07:53:39.736Z,0.80
2023-01-15T07:55:44.653Z,0.40
2023-01-15T07:57:49.691Z,0.32
2023-01-15T07:59:54.621Z,0.40
2023-01-15T08:01:59.663Z,0.60
2023-01-15T08:04:04.678Z,0.17
2023-01-15T08:06:10.468Z,0.57
2023-01-15T08:08:20.971Z,0.30
2023-01-15T08:10:26.643Z,0.50
2023-01-15T08:12:44.058Z,0.38
2023-01-15T08:15:01.978Z,0.30
2023-01-15T08:17:07.058Z,0.30
2023-01-15T08:19:11.967Z,0.40
2023-01-15T08:21:18.116Z,0.20
2023-01-15T08:23:26.211Z,0.30
2023-01-15T08:25:31.382Z,0.30
2023-01-15T08:27:36.353Z,0.30
2023-01-15T08:29:41.247Z,0.50
2023-01-15T08:31:46.153Z,0.25
2023-01-15T08:33:51.563Z,0.40
2023-01-15T08:35:57.184Z,0.30
2023-01-15T08:38:02.077Z,0.63
2023-01-15T08:40:14.135Z,0.60
2023-01-15T08:42:19.120Z,0.20
2023-01-15T08:44:24.521Z,0.40
2023-01-15T08:46:29.493Z,0.40
2023-01-15T08:48:36.420Z,0.30
2023-01-15T08:50:41.413Z,0.40
2023-01-15T08:52:46.300Z,0.50
2023-01-15T08:54:51.189Z,0.63
2023-01-15T08:56:58.680Z,0.45
2023-01-15T08:59:08.472Z,0.43
2023-01-15T09:01:16.474Z,0.50
2023-01-15T09:03:21.458Z,0.60
2023-01-15T09:05:28.115Z,0.60
2023-01-15T09:07:35.551Z,0.68
2023-01-15T09:09:40.511Z,0.80
2023-01-15T09:11:45.811Z,0.60
2023-01-15T09:13:54.514Z,0.90
2023-01-15T09:16:03.123Z,0.77
2023-01-15T09:18:10.731Z,0.80
2023-01-15T09:20:17.165Z,0.70
2023-01-15T09:22:22.254Z,0.68
2023-01-15T09:24:27.626Z,0.55
2023-01-15T09:26:35.792Z,0.77
2023-01-15T09:28:40.703Z,0.63
2023-01-15T09:30:48.281Z,0.50
2023-01-15T09:32:53.589Z,0.50
2023-01-15T09:34:58.756Z,0.50
2023-01-15T09:37:04.004Z,0.80
2023-01-15T09:39:09.760Z,0.50
2023-01-15T09:41:29.738Z,0.43
2023-01-15T09:43:51.102Z,0.70
2023-01-15T09:46:04.637Z,0.50
2023-01-15T09:48:29.983Z,0.50
2023-01-15T09:50:51.402Z,0.60
2023-01-15T09:53:13.336Z,0.70
2023-01-15T09:55:23.144Z,0.70
2023-01-15T09:57:30.906Z,0.70
2023-01-15T09:59:40.513Z,0.80
2023-01-15T10:01:50.255Z,0.68
2023-01-15T10:04:02.778Z,0.70
2023-01-15T10:06:16.349Z,0.40
2023-01-15T10:08:27.209Z,1.30
2023-01-15T10:10:41.711Z,1.33
2023-01-15T10:12:50.672Z,1.42
2023-01-15T10:15:04.160Z,1.95
2023-01-15T10:17:30.254Z,2.50
2023-01-15T10:19:44.421Z,3.05
2023-01-15T10:21:59.209Z,2.60
2023-01-15T10:24:09.607Z,2.47
2023-01-15T10:26:26.117Z,2.50
2023-01-15T10:28:34.983Z,2.97
2023-01-15T10:30:49.596Z,1.85
2023-01-15T10:33:02.707Z,2.25
2023-01-15T10:35:27.217Z,2.08
2023-01-15T10:37:42.316Z,2.00
2023-01-15T10:39:59.837Z,2.20
2023-01-15T10:42:19.576Z,2.70
2023-01-15T10:44:31.719Z,2.63
2023-01-15T10:46:40.920Z,2.57
2023-01-15T10:48:53.081Z,2.13
2023-01-15T10:51:01.781Z,2.20
2023-01-15T10:53:14.711Z,1.60
2023-01-15T10:55:27.560Z,1.77
2023-01-15T10:57:49.847Z,1.77
2023-01-15T11:00:02.426Z,2.78
2023-01-15T11:02:32.126Z,1.42
2023-01-15T11:04:39.764Z,1.40
2023-01-15T11:06:45.766Z,1.20
2023-01-15T11:09:12.110Z,1.13
2023-01-15T11:11:44.842Z,1.65
2023-01-15T11:14:12.204Z,1.83
2023-01-15T11:16:31.125Z,1.85
2023-01-15T11:18:54.302Z,1.50
2023-01-15T11:21:02.892Z,1.40
2023-01-15T11:23:13.702Z,1.30
2023-01-15T11:25:31.074Z,1.58
2023-01-15T11:27:38.524Z,1.27
2023-01-15T11:29:46.527Z,1.77
2023-01-15T11:31:51.402Z,1.90
2023-01-15T11:34:05.082Z,2.33
2023-01-15T11:36:25.491Z,2.15
2023-01-15T11:38:33.054Z,2.38
2023-01-15T11:40:38.084Z,2.13
2023-01-15T11:43:02.106Z,2.33
2023-01-15T11:45:33.327Z,2.28
2023-01-15T11:47:50.750Z,1.98
2023-01-15T11:50:09.608Z,1.48
2023-01-15T11:52:24.522Z,1.10
2023-01-15T11:54:30.195Z,1.00
2023-01-15T11:56:37.936Z,0.80
2023-01-15T11:58:47.986Z,0.82
2023-01-15T12:00:55.967Z,0.88
2023-01-15T12:03:06.660Z,0.70
2023-01-15T12:05:20.845Z,0.70
2023-01-15T12:07:29.397Z,0.60
2023-01-15T12:09:50.853Z,0.85
2023-01-15T12:12:17.452Z,0.68
2023-01-15T12:14:53.431Z,0.70
2023-01-15T12:17:07.314Z,0.50
2023-01-15T12:19:23.040Z,1.15
2023-01-15T12:22:00.914Z,0.40
2023-01-15T12:24:36.465Z,0.75
2023-01-15T12:26:55.122Z,0.80
2023-01-15T12:29:09.039Z,0.52
2023-01-15T12:31:19.301Z,0.40
2023-01-15T12:33:39.998Z,0.60
2023-01-15T12:35:49.574Z,0.40
2023-01-15T12:38:00.907Z,0.82
2023-01-15T12:40:25.079Z,0.50
2023-01-15T12:42:45.389Z,0.80
2023-01-15T12:45:04.810Z,0.75
2023-01-15T12:47:18.675Z,0.50
2023-01-15T12:49:35.604Z,0.50
2023-01-15T12:51:54.588Z,0.80
2023-01-15T12:54:06.316Z,0.73
2023-01-15T12:56:23.978Z,0.65
2023-01-15T12:58:43.921Z,0.60
2023-01-15T13:00:54.502Z,0.68
2023-01-15T13:03:18.269Z,0.68
2023-01-15T13:05:31.570Z,0.60
2023-01-15T13:07:43.965Z,0.63
2023-01-15T13:09:59.198Z,0.47
2023-01-15T13:12:15.687Z,0.65
2023-01-15T13:14:22.307Z,0.60
2023-01-15T13:16:43.734Z,0.65
2023-01-15T13:19:13.909Z,0.50
2023-01-15T13:21:22.074Z,0.60
2023-01-15T13:23:47.338Z,0.85
2023-01-15T13:26:14.335Z,0.70
2023-01-15T13:28:40.795Z,0.57
2023-01-15T13:33:30.580Z,1.98
2023-01-15T13:35:42.131Z,0.70
2023-01-15T13:37:54.329Z,0.95
2023-01-15T13:40:04.093Z,0.65
2023-01-15T13:42:22.633Z,0.60
2023-01-15T13:44:39.622Z,0.90
2023-01-15T13:46:45.160Z,0.47
2023-01-15T13:48:53.551Z,0.60
2023-01-15T13:51:00.748Z,0.55
2023-01-15T13:53:16.866Z,0.80
2023-01-15T13:55:31.396Z,0.75
2023-01-15T13:57:40.448Z,0.60
2023-01-15T13:59:50.930Z,0.50
2023-01-15T14:01:56.044Z,1.00
2023-01-15T14:04:09.123Z,0.68
2023-01-15T14:06:14.051Z,0.63
2023-01-15T14:08:19.946Z,0.70
2023-01-15T14:10:39.491Z,1.67
2023-01-15T14:12:56.217Z,0.70
2023-01-15T14:15:40.983Z,0.73
2023-01-15T14:18:08.872Z,0.77
2023-01-15T14:20:59.660Z,0.73
2023-01-15T14:23:27.537Z,0.70
2023-01-15T14:25:50.056Z,0.70
2023-01-15T14:28:12.239Z,0.90
2023-01-15T14:30:42.638Z,0.90
2023-01-15T14:33:04.131Z,0.80
2023-01-15T14:35:17.253Z,0.93
2023-01-15T14:37:30.174Z,0.55
2023-01-15T14:39:49.230Z,0.80
2023-01-15T14:42:14.427Z,0.68
2023-01-15T14:44:20.343Z,0.80
2023-01-15T14:46:37.929Z,0.70
2023-01-15T14:48:43.959Z,1.00
2023-01-15T14:50:54.678Z,0.90
2023-01-15T14:53:08.421Z,0.70
2023-01-15T14:55:16.189Z,1.00
2023-01-15T14:57:23.380Z,0.82
2023-01-15T14:59:37.616Z,1.23
2023-01-15T15:01:55.199Z,0.98
2023-01-15T15:04:07.557Z,0.70
2023-01-15T15:06:17.139Z,0.90
2023-01-15T15:08:23.752Z,0.90
2023-01-15T15:10:36.785Z,0.75
2023-01-15T15:12:43.560Z,0.75
2023-01-15T15:14:55.828Z,1.02
2023-01-15T15:17:07.753Z,0.80
2023-01-15T15:19:19.663Z,0.50
2023-01-15T15:21:29.864Z,0.80
2023-01-15T15:23:43.124Z,0.75
2023-01-15T15:26:00.247Z,0.90
2023-01-15T15:28:07.841Z,0.77
2023-01-15T15:30:17.176Z,0.90
2023-01-15T15:32:27.660Z,0.85
2023-01-15T15:34:38.144Z,1.00
2023-01-15T15:36:43.462Z,1.60
2023-01-15T15:38:56.419Z,0.88
2023-01-15T15:41:05.017Z,0.80
2023-01-15T15:43:30.869Z,1.90
2023-01-15T15:45:48.666Z,0.90
2023-01-15T15:48:13.705Z,0.90
2023-01-15T15:50:31.457Z,1.20
2023-01-15T15:52:38.390Z,0.70
2023-01-15T15:54:43.756Z,0.98
2023-01-15T15:57:00.739Z,1.08
2023-01-15T15:59:07.080Z,1.10
2023-01-15T16:01:15.907Z,1.55
2023-01-15T16:03:27.231Z,2.10
2023-01-15T16:05:33.283Z,1.00
2023-01-15T16:07:38.258Z,1.58
2023-01-15T16:09:45.249Z,1.10
2023-01-15T16:11:52.734Z,1.00
2023-01-15T16:14:01.407Z,1.15
2023-01-15T16:16:08.313Z,1.17
2023-01-15T16:18:26.696Z,1.23
2023-01-15T16:20:32.410Z,1.02
2023-01-15T16:22:38.061Z,1.20
2023-01-15T16:24:42.985Z,1.70
2023-01-15T16:26:52.277Z,1.45
2023-01-15T16:29:02.269Z,1.35
2023-01-15T16:31:08.984Z,3.08
2023-01-15T16:33:19.964Z,0.93
2023-01-15T16:35:28.626Z,0.98
2023-01-15T16:37:36.025Z,1.20
2023-01-15T16:39:47.208Z,1.20
2023-01-15T16:41:53.856Z,1.20
2023-01-15T16:44:03.100Z,1.20
2023-01-15T16:46:18.769Z,1.30
2023-01-15T16:48:36.826Z,1.10
2023-01-15T16:50:45.011Z,1.27
2023-01-15T16:52:55.395Z,1.00
2023-01-15T16:55:01.686Z,1.48
2023-01-15T16:57:08.854Z,1.42
2023-01-15T16:59:20.811Z,1.10
2023-01-15T17:01:41.831Z,1.23
2023-01-15T17:03:47.270Z,1.40
2023-01-15T17:05:59.815Z,1.70
2023-01-15T17:08:05.001Z,1.20
2023-01-15T17:10:27.690Z,1.10
2023-01-15T17:12:35.789Z,1.20
2023-01-15T17:14:41.121Z,1.05
2023-01-15T17:16:46.118Z,1.17
2023-01-15T17:18:53.097Z,1.58
2023-01-15T17:21:02.437Z,1.65
2023-01-15T17:23:15.515Z,2.75
2023-01-15T17:25:27.405Z,1.17
2023-01-15T17:27:33.563Z,0.77
2023-01-15T17:29:38.562Z,1.40
2023-01-15T17:31:45.858Z,1.00
2023-01-15T17:33:51.496Z,1.42
2023-01-15T17:36:00.665Z,1.40
2023-01-15T17:38:11.925Z,1.65
2023-01-15T17:40:17.590Z,1.48
2023-01-15T17:42:23.302Z,1.33
2023-01-15T17:44:28.317Z,1.73
2023-01-15T17:46:33.702Z,2.05
2023-01-15T17:48:40.067Z,1.13
2023-01-15T17:50:45.865Z,1.13
2023-01-15T17:52:52.207Z,1.00
2023-01-15T17:55:12.910Z,1.73
2023-01-15T17:57:30.711Z,1.60
2023-01-15T17:59:48.159Z,1.50
2023-01-15T18:02:06.106Z,1.40
2023-01-15T18:04:32.497Z,1.30
2023-01-15T18:06:37.715Z,1.73
2023-01-15T18:08:44.415Z,1.20
2023-01-15T18:10:52.001Z,1.45
2023-01-15T18:12:57.293Z,1.10
2023-01-15T18:15:02.550Z,1.30
2023-01-15T18:17:07.609Z,1.92
2023-01-15T18:19:13.823Z,1.52
2023-01-15T18:21:18.872Z,1.23
2023-01-15T18:23:26.012Z,1.45
2023-01-15T18:25:31.073Z,1.05
2023-01-15T18:27:43.394Z,1.13
2023-01-15T18:29:48.502Z,0.90
2023-01-15T18:31:53.453Z,0.90
2023-01-15T18:33:58.401Z,0.88
2023-01-15T18:36:04.761Z,1.00
2023-01-15T18:38:09.839Z,1.08
2023-01-15T18:40:16.063Z,0.90
2023-01-15T18:42:33.400Z,1.10
2023-01-15T18:44:53.291Z,2.65
2023-01-15T18:47:01.892Z,0.88
2023-01-15T18:49:07.141Z,1.27
2023-01-15T18:51:13.019Z,1.30
2023-01-15T18:53:18.308Z,1.00
2023-01-15T18:55:25.705Z,1.42
2023-01-15T18:57:30.946Z,1.13
2023-01-15T18:59:35.916Z,1.10
2023-01-15T19:01:44.743Z,1.35
2023-01-15T19:03:49.650Z,1.10
2023-01-15T19:05:54.527Z,1.27
2023-01-15T19:07:59.537Z,1.02
2023-01-15T19:10:04.372Z,1.38
2023-01-15T19:12:10.308Z,1.30
2023-01-15T19:14:27.710Z,1.13
2023-01-15T19:16:46.304Z,1.00
2023-01-15T19:18:55.222Z,0.95
2023-01-15T19:21:00.093Z,1.00
2023-01-15T19:23:05.755Z,1.88
2023-01-15T19:25:11.884Z,0.95
2023-01-15T19:27:17.637Z,0.90
2023-01-15T19:29:22.673Z,1.10
2023-01-15T19:31:40.458Z,1.08
2023-01-15T19:33:45.397Z,1.10
2023-01-15T19:35:55.898Z,1.10
2023-01-15T19:38:00.840Z,1.60
2023-01-15T19:40:07.220Z,1.17
2023-01-15T19:42:27.801Z,1.83
2023-01-15T19:44:50.946Z,1.67
2023-01-15T19:47:08.288Z,1.88
2023-01-15T19:49:31.240Z,1.30
2023-01-15T19:51:50.929Z,1.88
2023-01-15T19:53:55.766Z,2.05
2023-01-15T19:56:00.630Z,2.25
2023-01-15T19:58:08.210Z,1.88
2023-01-15T20:00:17.224Z,2.60
2023-01-15T20:02:22.301Z,1.80
2023-01-15T20:04:28.269Z,3.45
2023-01-15T20:06:33.264Z,1.73
2023-01-15T20:08:42.065Z,1.85
2023-01-15T20:10:49.694Z,1.40
2023-01-15T20:13:07.811Z,1.70
2023-01-15T20:15:13.976Z,1.60
2023-01-15T20:17:19.393Z,1.77
2023-01-15T20:19:24.243Z,1.90
2023-01-15T20:21:29.138Z,1.98
2023-01-15T20:23:35.911Z,1.52
2023-01-15T20:25:47.204Z,1.85
2023-01-15T20:27:52.059Z,1.98
2023-01-15T20:29:57.124Z,1.75
2023-01-15T20:32:02.031Z,1.73
2023-01-15T20:34:06.935Z,1.90
2023-01-15T20:36:12.609Z,1.70
2023-01-15T20:38:19.006Z,2.35
2023-01-15T20:40:26.475Z,1.50
2023-01-15T20:42:48.317Z,1.92
2023-01-15T20:44:53.776Z,1.55
2023-01-15T20:46:58.942Z,1.55
2023-01-15T20:49:16.299Z,1.60
2023-01-15T20:51:21.194Z,2.08
2023-01-15T20:53:26.020Z,2.00
2023-01-15T20:55:45.654Z,1.77
2023-01-15T20:58:02.138Z,2.10
2023-01-15T21:00:11.579Z,1.20
2023-01-15T21:02:16.839Z,1.23
2023-01-15T21:04:21.754Z,1.40
2023-01-15T21:06:27.754Z,1.63
2023-01-15T21:08:33.512Z,1.70
2023-01-15T21:10:39.142Z,1.67
2023-01-15T21:12:44.471Z,2.25
2023-01-15T21:14:51.937Z,1.40
2023-01-15T21:16:56.811Z,1.80
2023-01-15T21:19:04.409Z,1.42
2023-01-15T21:21:12.737Z,1.63
2023-01-15T21:23:17.682Z,1.60
2023-01-15T21:25:22.741Z,1.63
2023-01-15T21:27:28.188Z,1.52
2023-01-15T21:29:33.681Z,1.85
2023-01-15T21:31:41.185Z,2.10
2023-01-15T21:33:46.035Z,2.80
2023-01-15T21:35:50.982Z,1.30
2023-01-15T21:37:55.870Z,1.60
2023-01-15T21:40:00.750Z,1.45
2023-01-15T21:42:18.077Z,1.52
2023-01-15T21:44:35.985Z,1.70
2023-01-15T21:46:43.488Z,1.50
2023-01-15T21:48:48.454Z,1.83
2023-01-15T21:50:53.325Z,1.60
2023-01-15T21:53:01.033Z,1.83
2023-01-15T21:55:07.384Z,2.25
2023-01-15T21:57:13.390Z,1.52
2023-01-15T21:59:19.621Z,1.70
2023-01-15T22:01:26.718Z,1.67
2023-01-15T22:03:34.318Z,1.98
2023-01-15T22:05:39.386Z,1.60
2023-01-15T22:07:44.280Z,1.70
2023-01-15T22:09:49.754Z,1.90
2023-01-15T22:11:54.983Z,1.95
2023-01-15T22:14:00.241Z,3.13
2023-01-15T22:16:06.353Z,2.45
2023-01-15T22:18:11.199Z,1.95
2023-01-15T22:20:19.711Z,1.58
2023-01-15T22:22:30.460Z,1.65
2023-01-15T22:24:37.421Z,2.65
2023-01-15T22:26:43.495Z,1.60
2023-01-15T22:28:48.929Z,1.77
2023-01-15T22:30:53.884Z,2.13
2023-01-15T22:33:00.558Z,1.90
2023-01-15T22:35:05.602Z,1.70
2023-01-15T22:37:15.866Z,1.77
2023-01-15T22:39:21.355Z,1.70
2023-01-15T22:41:38.627Z,1.50
2023-01-15T22:43:43.598Z,1.60
2023-01-15T22:45:48.828Z,1.92
2023-01-15T22:47:54.100Z,1.50
2023-01-15T22:49:59.505Z,1.50
2023-01-15T22:52:04.374Z,1.40
2023-01-15T22:54:13.064Z,1.88
2023-01-15T22:56:17.914Z,1.70
2023-01-15T22:58:23.231Z,1.42
2023-01-15T23:00:28.118Z,2.08
2023-01-15T23:02:45.484Z,1.67
2023-01-15T23:04:51.387Z,1.63
2023-01-15T23:06:56.701Z,1.70
2023-01-15T23:09:03.239Z,1.45
2023-01-15T23:11:16.544Z,1.95
2023-01-15T23:13:21.407Z,1.95
2023-01-15T23:15:26.835Z,1.70
2023-01-15T23:17:32.718Z,1.40
2023-01-15T23:19:37.854Z,2.10
2023-01-15T23:21:43.937Z,1.67
2023-01-15T23:23:49.496Z,1.90
2023-01-15T23:25:54.722Z,1.70
2023-01-15T23:28:02.593Z,1.58
2023-01-15T23:30:09.244Z,1.70
2023-01-15T23:32:14.117Z,1.73
2023-01-15T23:34:19.410Z,1.50
2023-01-15T23:36:24.529Z,1.58
2023-01-15T23:38:29.948Z,1.98
2023-01-15T23:40:35.561Z,1.33
2023-01-15T23:42:52.911Z,1.70
2023-01-15T23:45:13.634Z,1.70
2023-01-15T23:47:19.275Z,1.60
2023-01-15T23:49:24.125Z,1.60
2023-01-15T23:51:29.694Z,1.40
2023-01-15T23:53:34.879Z,1.40
2023-01-15T23:55:40.124Z,1.35
2023-01-15T23:57:45.541Z,1.50
2023-01-15T23:59:50.410Z,1.80
